createdAt,value
2024-01-14T00:02:01.001Z,14.20
2024-01-14T00:05:04.325Z,14.68
2024-01-14T00:08:07.749Z,14.87
2024-01-14T00:11:11.251Z,14.27
2024-01-14T00:14:15.936Z,13.75
2024-01-14T00:17:19.350Z,15.23
2024-01-14T00:20:22.836Z,13.50
2024-01-14T00:23:26.006Z,14.87
2024-01-14T00:26:30.106Z,11.83
2024-01-14T00:29:37.420Z,13.80
2024-01-14T00:32:42.097Z,12.32
2024-01-14T00:35:45.935Z,15.50
2024-01-14T00:38:49.223Z,11.03
2024-01-14T00:41:52.364Z,12.83
2024-01-14T00:44:56.974Z,12.48
2024-01-14T00:48:00.467Z,14.45
2024-01-14T00:51:03.820Z,13.25
2024-01-14T00:54:10.270Z,14.23
2024-01-14T00:57:13.650Z,16.37
2024-01-14T01:00:19.185Z,15.38
2024-01-14T01:03:23.130Z,14.20
2024-01-14T01:06:26.717Z,13.88
2024-01-14T01:09:30.069Z,14.97
2024-01-14T01:12:33.394Z,14.67
2024-01-14T01:15:38.023Z,15.25
2024-01-14T01:18:41.859Z,15.38
2024-01-14T01:21:45.119Z,14.32
2024-01-14T01:24:48.239Z,14.37
2024-01-14T01:27:57.755Z,15.47
2024-01-14T01:31:06.143Z,15.65
2024-01-14T01:34:09.539Z,15.98
2024-01-14T01:37:12.975Z,14.82
2024-01-14T01:40:16.289Z,15.53
2024-01-14T01:43:19.430Z,15.10
2024-01-14T01:46:24.044Z,14.38
2024-01-14T01:49:27.837Z,15.70
2024-01-14T01:52:31.588Z,16.80
2024-01-14T01:55:34.719Z,16.43
2024-01-14T01:58:38.930Z,14.73
2024-01-14T02:01:45.522Z,15.95
2024-01-14T02:04:49.512Z,15.88
2024-01-14T02:07:52.954Z,14.90
2024-01-14T02:10:56.074Z,15.37
2024-01-14T02:13:59.215Z,14.33
2024-01-14T02:17:03.818Z,15.32
2024-01-14T02:20:09.248Z,15.50
2024-01-14T02:23:17.367Z,15.25
2024-01-14T02:26:21.987Z,14.47
2024-01-14T02:29:28.850Z,15.50
2024-01-14T02:32:38.610Z,14.52
2024-01-14T02:35:42.063Z,16.02
2024-01-14T02:38:45.206Z,16.50
2024-01-14T02:41:49.768Z,13.53
2024-01-14T02:44:53.005Z,16.50
2024-01-14T02:47:56.451Z,15.20
2024-01-14T02:50:59.618Z,15.48
2024-01-14T02:54:03.776Z,14.90
2024-01-14T02:57:10.267Z,14.10
2024-01-14T03:00:14.937Z,16.10
2024-01-14T03:03:18.262Z,14.00
2024-01-14T03:06:21.614Z,14.07
2024-01-14T03:09:25.382Z,13.55
2024-01-14T03:12:32.170Z,13.40
2024-01-14T03:15:35.507Z,12.40
2024-01-14T03:18:38.982Z,14.13
2024-01-14T03:21:45.243Z,12.65
2024-01-14T03:24:48.413Z,14.82
2024-01-14T03:27:52.923Z,15.13
2024-01-14T03:30:56.887Z,15.37
2024-01-14T03:34:00.560Z,13.43
2024-01-14T03:37:04.416Z,13.98
2024-01-14T03:40:11.229Z,12.63
2024-01-14T03:43:15.909Z,13.67
2024-01-14T03:46:19.112Z,13.50
2024-01-14T03:49:22.350Z,12.90
2024-01-14T03:52:25.444Z,13.15
2024-01-14T03:55:28.585Z,12.68
2024-01-14T03:58:34.450Z,14.00
2024-01-14T04:01:37.608Z,14.80
2024-01-14T04:04:41.889Z,14.43
2024-01-14T04:07:44.970Z,12.50
2024-01-14T04:10:48.481Z,15.63
2024-01-14T04:13:52.931Z,13.57
2024-01-14T04:16:56.232Z,14.90
2024-01-14T04:19:59.750Z,13.10
2024-01-14T04:23:03.006Z,14.13
2024-01-14T04:26:07.250Z,14.60
2024-01-14T04:29:11.937Z,12.13
2024-01-14T04:32:17.447Z,15.40
2024-01-14T04:35:20.780Z,13.93
2024-01-14T04:38:23.870Z,16.25
2024-01-14T04:41:26.997Z,16.38
2024-01-14T04:44:31.575Z,15.77
2024-01-14T04:47:35.399Z,15.30
2024-01-14T04:50:41.209Z,16.13
2024-01-14T04:53:44.514Z,13.85
2024-01-14T04:56:47.702Z,14.60
2024-01-14T04:59:52.460Z,16.40
2024-01-14T05:02:55.875Z,16.43
2024-01-14T05:05:59.189Z,15.48
2024-01-14T05:09:02.496Z,16.58
2024-01-14T05:12:06.083Z,17.38
2024-01-14T05:15:11.455Z,15.43
2024-01-14T05:18:14.774Z,14.67
2024-01-14T05:21:18.466Z,16.38
2024-01-14T05:24:21.811Z,15.82
2024-01-14T05:27:25.062Z,14.98
2024-01-14T05:30:29.679Z,14.93
2024-01-14T05:33:33.192Z,17.57
2024-01-14T05:36:37.362Z,16.05
2024-01-14T05:39:40.824Z,17.50
2024-01-14T05:42:44.665Z,16.17
2024-01-14T05:45:49.226Z,16.13
2024-01-14T05:48:52.697Z,17.13
2024-01-14T05:51:56.044Z,18.65
2024-01-14T05:54:59.259Z,16.27
2024-01-14T05:58:02.487Z,18.30
2024-01-14T06:01:07.087Z,17.73
2024-01-14T06:04:10.267Z,17.00
2024-01-14T06:07:13.641Z,15.27
2024-01-14T06:10:18.610Z,16.80
2024-01-14T06:13:21.764Z,18.48
2024-01-14T06:16:29.359Z,14.37
2024-01-14T06:19:32.759Z,17.60
2024-01-14T06:22:36.044Z,20.58
2024-01-14T06:25:39.161Z,18.33
2024-01-14T06:28:42.398Z,15.93
2024-01-14T06:31:48.459Z,10.87
2024-01-14T06:34:51.630Z,14.90
2024-01-14T06:37:54.784Z,14.95
2024-01-14T06:41:06.822Z,15.65
2024-01-14T06:44:14.133Z,18.08
2024-01-14T06:47:18.782Z,14.60
2024-01-14T06:50:22.341Z,19.00
2024-01-14T06:53:25.729Z,16.58
2024-01-14T06:56:29.010Z,14.13
2024-01-14T06:59:33.747Z,17.13
2024-01-14T07:02:40.144Z,17.73
2024-01-14T07:05:43.643Z,17.50
2024-01-14T07:08:47.048Z,17.40
2024-01-14T07:11:50.278Z,15.30
2024-01-14T07:14:53.511Z,16.45
2024-01-14T07:18:00.337Z,17.33
2024-01-14T07:21:04.455Z,16.10
2024-01-14T07:24:08.221Z,16.27
2024-01-14T07:27:11.442Z,14.40
2024-01-14T07:30:17.686Z,16.05
2024-01-14T07:33:22.496Z,14.10
2024-01-14T07:36:25.884Z,14.70
2024-01-14T07:39:29.178Z,12.65
2024-01-14T07:42:33.570Z,13.73
2024-01-14T07:45:36.916Z,15.05
2024-01-14T07:48:42.814Z,15.37
2024-01-14T07:51:46.323Z,17.10
2024-01-14T07:54:49.610Z,16.02
2024-01-14T07:57:58.721Z,16.75
2024-01-14T08:01:03.453Z,15.27
2024-01-14T08:04:09.265Z,17.40
2024-01-14T08:07:12.871Z,14.53
2024-01-14T08:10:16.325Z,15.18
2024-01-14T08:13:19.820Z,15.93
2024-01-14T08:16:23.522Z,15.35
2024-01-14T08:19:28.087Z,15.23
2024-01-14T08:22:31.357Z,13.93
2024-01-14T08:25:34.979Z,13.68
2024-01-14T08:28:38.689Z,13.55
2024-01-14T08:31:42.271Z,13.13
2024-01-14T08:34:47.230Z,13.70
2024-01-14T08:37:50.843Z,14.27
2024-01-14T08:40:54.202Z,15.23
2024-01-14T08:43:57.541Z,14.27
2024-01-14T08:47:00.836Z,12.32
2024-01-14T08:50:05.942Z,11.07
2024-01-14T08:53:09.216Z,12.00
2024-01-14T08:56:12.497Z,11.50
2024-01-14T08:59:15.704Z,11.88
2024-01-14T09:02:21.079Z,11.48
2024-01-14T09:05:27.285Z,11.07
2024-01-14T09:08:30.398Z,8.60
2024-01-14T09:11:33.489Z,10.23
2024-01-14T09:14:36.645Z,9.05
2024-01-14T09:17:39.943Z,9.23
2024-01-14T09:20:45.323Z,9.73
2024-01-14T09:23:48.728Z,10.97
2024-01-14T09:26:51.913Z,9.40
2024-01-14T09:29:55.421Z,9.57
2024-01-14T09:32:58.603Z,7.90
2024-01-14T09:36:10.327Z,7.47
2024-01-14T09:39:14.320Z,9.33
2024-01-14T09:42:25.094Z,9.88
2024-01-14T09:45:34.335Z,9.15
2024-01-14T09:48:42.405Z,8.35
2024-01-14T09:51:50.460Z,8.80
2024-01-14T09:54:53.935Z,8.17
2024-01-14T09:58:00.432Z,8.05
2024-01-14T10:01:06.809Z,9.25
2024-01-14T10:04:10.153Z,8.70
2024-01-14T10:07:14.833Z,8.57
2024-01-14T10:10:18.057Z,9.37
2024-01-14T10:13:22.774Z,8.60
2024-01-14T10:16:50.951Z,7.88
2024-01-14T10:19:54.759Z,8.93
2024-01-14T10:22:59.537Z,7.50
2024-01-14T10:26:05.300Z,7.10
2024-01-14T10:29:09.253Z,8.25
2024-01-14T10:32:12.504Z,7.50
2024-01-14T10:35:15.879Z,8.27
2024-01-14T10:38:23.576Z,9.77
2024-01-14T10:41:26.899Z,7.50
2024-01-14T10:44:33.445Z,8.70
2024-01-14T10:47:36.954Z,8.43
2024-01-14T10:50:47.972Z,8.65
2024-01-14T10:54:03.773Z,7.17
2024-01-14T10:57:17.333Z,6.83
2024-01-14T11:00:21.288Z,7.85
2024-01-14T11:03:27.178Z,8.13
2024-01-14T11:06:32.272Z,9.32
2024-01-14T11:09:36.881Z,8.80
2024-01-14T11:12:46.721Z,5.80
2024-01-14T11:16:01.192Z,7.22
2024-01-14T11:19:20.636Z,7.20
2024-01-14T11:22:34.801Z,5.95
2024-01-14T11:25:47.233Z,6.43
2024-01-14T11:28:51.228Z,5.40
2024-01-14T11:32:07.327Z,6.38
2024-01-14T11:35:11.501Z,6.18
2024-01-14T11:38:36.608Z,6.45
2024-01-14T11:41:44.473Z,4.90
2024-01-14T11:44:47.663Z,5.87
2024-01-14T11:47:52.620Z,4.95
2024-01-14T11:50:57.485Z,4.85
2024-01-14T11:54:01.864Z,4.93
2024-01-14T11:57:24.951Z,4.80
2024-01-14T12:00:28.848Z,4.47
2024-01-14T12:03:32.074Z,5.05
2024-01-14T12:06:41.934Z,5.00
2024-01-14T12:10:18.454Z,4.68
2024-01-14T12:13:27.332Z,4.70
2024-01-14T12:16:30.607Z,4.00
2024-01-14T12:19:33.816Z,4.68
2024-01-14T12:22:37.536Z,4.53
2024-01-14T12:25:40.869Z,4.68
2024-01-14T12:28:46.182Z,5.77
2024-01-14T12:31:56.153Z,5.17
2024-01-14T12:35:01.157Z,4.78
2024-01-14T12:38:05.203Z,4.70
2024-01-14T12:41:08.609Z,4.93
2024-01-14T12:44:13.090Z,4.63
2024-01-14T12:47:16.531Z,5.60
2024-01-14T12:50:20.367Z,5.00
2024-01-14T12:53:23.852Z,5.18
2024-01-14T12:56:27.655Z,5.05
2024-01-14T12:59:35.754Z,5.33
2024-01-14T13:02:39.493Z,5.77
2024-01-14T13:05:43.127Z,6.22
2024-01-14T13:08:48.275Z,4.90
2024-01-14T13:11:51.703Z,5.30
2024-01-14T13:14:56.390Z,6.07
2024-01-14T13:18:01.676Z,6.27
2024-01-14T13:21:05.155Z,5.32
2024-01-14T13:24:13.776Z,5.70
2024-01-14T13:27:17.620Z,4.43
2024-01-14T13:30:25.187Z,7.00
2024-01-14T13:33:28.571Z,6.53
2024-01-14T13:36:31.827Z,6.88
2024-01-14T13:39:36.262Z,6.45
2024-01-14T13:42:41.846Z,6.97
2024-01-14T13:45:50.359Z,6.57
2024-01-14T13:48:54.111Z,6.60
2024-01-14T13:51:58.024Z,7.05
2024-01-14T13:55:01.220Z,6.53
2024-01-14T13:58:08.450Z,5.03
2024-01-14T14:01:13.857Z,7.53
2024-01-14T14:04:18.517Z,8.53
2024-01-14T14:07:26.758Z,9.30
2024-01-14T14:10:29.997Z,10.75
2024-01-14T14:13:33.160Z,9.10
2024-01-14T14:16:43.785Z,10.33
2024-01-14T14:19:47.301Z,10.80
2024-01-14T14:22:57.755Z,10.35
2024-01-14T14:26:00.949Z,10.25
2024-01-14T14:29:04.776Z,10.70
2024-01-14T14:32:10.093Z,9.37
2024-01-14T14:35:14.893Z,9.57
2024-01-14T14:38:18.261Z,10.93
2024-01-14T14:41:30.182Z,9.95
2024-01-14T14:44:38.779Z,9.82
2024-01-14T14:47:43.423Z,10.83
2024-01-14T14:50:46.791Z,11.50
2024-01-14T14:53:49.925Z,11.13
2024-01-14T15:00:11.714Z,11.70
2024-01-14T15:03:18.219Z,12.03
2024-01-14T15:06:21.479Z,9.90
2024-01-14T15:09:26.652Z,11.23
2024-01-14T15:12:29.936Z,10.82
2024-01-14T15:15:33.176Z,11.07
2024-01-14T15:18:37.768Z,10.37
2024-01-14T15:21:41.425Z,11.13
2024-01-14T15:24:44.790Z,10.45
2024-01-14T15:27:48.111Z,12.90
2024-01-14T15:31:01.389Z,11.30
2024-01-14T15:34:12.131Z,12.30
2024-01-14T15:37:15.743Z,11.03
2024-01-14T15:40:20.505Z,11.25
2024-01-14T15:43:23.661Z,10.63
2024-01-14T15:46:27.510Z,11.10
2024-01-14T15:49:32.464Z,10.80
2024-01-14T15:52:35.985Z,12.17
2024-01-14T15:55:39.391Z,11.23
2024-01-14T15:58:44.360Z,11.40
2024-01-14T16:01:47.852Z,11.32
2024-01-14T16:04:53.300Z,12.20
2024-01-14T16:07:56.465Z,11.00
2024-01-14T16:11:05.186Z,11.85
2024-01-14T16:14:10.779Z,11.82
2024-01-14T16:17:14.321Z,12.52
2024-01-14T16:20:22.073Z,14.40
2024-01-14T16:23:26.054Z,15.03
2024-01-14T16:26:29.279Z,14.48
2024-01-14T16:29:32.977Z,14.05
2024-01-14T16:32:36.876Z,15.30
2024-01-14T16:35:48.133Z,15.97
2024-01-14T16:38:59.548Z,14.33
2024-01-14T16:42:03.845Z,16.48
2024-01-14T16:45:08.791Z,13.43
2024-01-14T16:48:13.415Z,14.55
2024-01-14T16:51:21.929Z,15.20
2024-01-14T16:54:26.232Z,13.63
2024-01-14T16:57:30.060Z,12.80
2024-01-14T17:00:33.333Z,14.15
2024-01-14T17:03:41.673Z,15.07
2024-01-14T17:06:46.722Z,14.53
2024-01-14T17:09:49.924Z,15.93
2024-01-14T17:12:53.518Z,14.30
2024-01-14T17:16:05.178Z,14.48
2024-01-14T17:19:15.649Z,15.57
2024-01-14T17:22:20.987Z,16.13
2024-01-14T17:25:24.424Z,14.60
2024-01-14T17:28:27.956Z,15.95
2024-01-14T17:31:31.291Z,15.43
2024-01-14T17:34:49.580Z,16.67
2024-01-14T17:37:54.917Z,15.57
2024-01-14T17:40:58.388Z,16.43
2024-01-14T17:44:02.710Z,12.43
2024-01-14T17:47:08.468Z,14.68
2024-01-14T17:50:11.676Z,15.07
2024-01-14T17:53:17.033Z,15.57
2024-01-14T17:56:20.687Z,14.63
2024-01-14T17:59:24.161Z,12.95
2024-01-14T18:02:27.718Z,14.52
2024-01-14T18:05:31.129Z,15.38
2024-01-14T18:08:36.069Z,13.80
2024-01-14T18:11:39.872Z,15.53
2024-01-14T18:14:46.172Z,13.15
2024-01-14T18:17:49.774Z,14.43
2024-01-14T18:20:57.356Z,14.38
2024-01-14T18:24:03.212Z,13.97
2024-01-14T18:27:07.472Z,16.20
2024-01-14T18:30:11.317Z,17.77
2024-01-14T18:33:15.383Z,18.17
2024-01-14T18:36:20.172Z,15.73
2024-01-14T18:39:24.940Z,18.00
2024-01-14T18:42:29.515Z,17.50
2024-01-14T18:45:33.683Z,17.00
2024-01-14T18:48:37.575Z,20.10
2024-01-14T18:51:43.903Z,20.27
2024-01-14T18:54:48.708Z,20.87
2024-01-14T18:57:52.789Z,22.03
2024-01-14T19:00:58.411Z,19.95
2024-01-14T19:04:02.525Z,18.08
2024-01-14T19:07:07.312Z,19.75
2024-01-14T19:10:12.641Z,17.37
2024-01-14T19:13:16.137Z,17.30
2024-01-14T19:16:20.187Z,21.88
2024-01-14T19:19:24.148Z,22.75
2024-01-14T19:22:28.479Z,22.10
2024-01-14T19:25:33.567Z,24.00
2024-01-14T19:28:37.273Z,20.50
2024-01-14T19:31:41.047Z,20.75
2024-01-14T19:34:44.815Z,21.42
2024-01-14T19:37:49.050Z,22.88
2024-01-14T19:40:56.645Z,22.60
2024-01-14T19:44:01.622Z,23.70
2024-01-14T19:47:05.278Z,24.13
2024-01-14T19:50:09.605Z,22.65
2024-01-14T19:53:13.997Z,22.00
2024-01-14T19:56:24.179Z,19.57
2024-01-14T19:59:28.680Z,22.80
2024-01-14T20:02:32.403Z,22.60
2024-01-14T20:05:35.881Z,20.05
2024-01-14T20:08:40.259Z,21.85
2024-01-14T20:11:46.292Z,22.03
2024-01-14T20:14:51.851Z,23.03
2024-01-14T20:17:55.233Z,22.35
2024-01-14T20:20:59.253Z,22.33
2024-01-14T20:24:03.372Z,21.75
2024-01-14T20:27:09.374Z,22.17
2024-01-14T20:30:14.579Z,22.97
2024-01-14T20:33:19.277Z,23.60
2024-01-14T20:36:23.274Z,23.17
2024-01-14T20:39:29.166Z,23.70
2024-01-14T20:42:38.996Z,20.97
2024-01-14T20:45:43.992Z,22.43
2024-01-14T20:48:50.879Z,24.10
2024-01-14T20:51:54.635Z,21.65
2024-01-14T20:54:58.133Z,23.02
2024-01-14T20:58:02.900Z,24.83
2024-01-14T21:01:06.986Z,22.00
2024-01-14T21:04:10.589Z,26.02
2024-01-14T21:07:14.461Z,25.83
2024-01-14T21:10:19.422Z,25.90
2024-01-14T21:13:24.070Z,24.90
2024-01-14T21:16:29.839Z,24.10
2024-01-14T21:19:33.237Z,21.00
2024-01-14T21:22:36.797Z,24.92
2024-01-14T21:25:40.750Z,25.00
2024-01-14T21:28:45.745Z,23.83
2024-01-14T21:31:49.012Z,24.83
2024-01-14T21:34:52.291Z,25.27
2024-01-14T21:37:55.599Z,25.25
2024-01-14T21:40:58.799Z,25.00
2024-01-14T21:44:03.347Z,23.23
2024-01-14T21:47:06.701Z,26.40
2024-01-14T21:50:10.631Z,25.00
2024-01-14T21:53:15.692Z,24.90
2024-01-14T21:56:18.980Z,26.08
2024-01-14T21:59:25.714Z,26.73
2024-01-14T22:02:29.030Z,25.83
2024-01-14T22:05:32.261Z,28.67
2024-01-14T22:08:35.399Z,26.33
2024-01-14T22:11:38.547Z,25.08
2024-01-14T22:14:45.277Z,26.53
2024-01-14T22:17:48.640Z,26.27
2024-01-14T22:20:52.124Z,26.25
2024-01-14T22:23:55.471Z,32.80
2024-01-14T22:26:58.690Z,25.40
2024-01-14T22:30:04.638Z,27.70
2024-01-14T22:33:10.114Z,28.07
2024-01-14T22:36:13.779Z,27.05
2024-01-14T22:39:17.289Z,27.17
2024-01-14T22:42:20.485Z,27.90
2024-01-14T22:45:25.303Z,26.67
2024-01-14T22:48:31.449Z,26.77
2024-01-14T22:51:59.606Z,25.42
2024-01-14T22:55:27.597Z,24.83
2024-01-14T22:58:31.629Z,22.85
2024-01-14T23:01:36.350Z,26.73
2024-01-14T23:04:39.753Z,27.27
2024-01-14T23:07:43.024Z,24.88
2024-01-14T23:10:46.232Z,24.58
2024-01-14T23:13:49.413Z,21.60
2024-01-14T23:16:54.130Z,21.77
2024-01-14T23:19:57.353Z,24.70
2024-01-14T23:23:02.004Z,23.85
2024-01-14T23:26:05.452Z,22.40
2024-01-14T23:29:08.613Z,23.05
2024-01-14T23:32:15.181Z,23.07
2024-01-14T23:35:18.394Z,21.57
2024-01-14T23:38:21.595Z,22.92
2024-01-14T23:41:24.818Z,23.52
2024-01-14T23:44:28.029Z,23.85
2024-01-14T23:47:33.747Z,24.50
2024-01-14T23:50:50.762Z,23.60
2024-01-14T23:53:54.340Z,21.95
2024-01-14T23:56:57.497Z,23.38
